createdAt,value
2023-01-13T00:01:12.732Z,100178.06
2023-01-13T00:03:39.656Z,100172.16
2023-01-13T00:06:07.099Z,100171.56
2023-01-13T00:08:34.019Z,100175.03
2023-01-13T00:11:00.666Z,100179.81
2023-01-13T00:13:27.258Z,100180.69
2023-01-13T00:16:01.964Z,100178.31
2023-01-13T00:18:28.857Z,100183.22
2023-01-13T00:21:03.654Z,100179.19
2023-01-13T00:23:32.211Z,100179.44
2023-01-13T00:26:02.215Z,100176.19
2023-01-13T00:28:29.149Z,100175.19
2023-01-13T00:30:58.797Z,100178.56
2023-01-13T00:33:25.928Z,100172.69
2023-01-13T00:36:00.504Z,100171.06
2023-01-13T00:38:27.264Z,100166.16
2023-01-13T00:41:08.804Z,100175.56
2023-01-13T00:43:37.314Z,100167.19
2023-01-13T00:46:05.867Z,100165.44
2023-01-13T00:48:33.212Z,100162.94
2023-01-13T00:51:05.283Z,100162.44
2023-01-13T00:53:39.008Z,100148.13
2023-01-13T00:56:09.683Z,100152.25
2023-01-13T00:58:36.626Z,100151.00
2023-01-13T01:01:05.975Z,100148.38
2023-01-13T01:03:32.713Z,100145.00
2023-01-13T01:06:09.133Z,100144.25
2023-01-13T01:08:35.984Z,100138.25
2023-01-13T01:11:08.619Z,100133.22
2023-01-13T01:13:36.215Z,100136.63
2023-01-13T01:16:15.423Z,100118.31
2023-01-13T01:18:45.283Z,100119.31
2023-01-13T01:21:12.829Z,100126.84
2023-01-13T01:23:40.623Z,100125.31
2023-01-13T01:26:13.722Z,100132.09
2023-01-13T01:28:40.858Z,100128.84
2023-01-13T01:31:14.379Z,100127.34
2023-01-13T01:33:41.224Z,100126.47
2023-01-13T01:36:09.272Z,100124.97
2023-01-13T01:38:35.880Z,100124.06
2023-01-13T01:41:02.809Z,100122.47
2023-01-13T01:44:04.365Z,100120.94
2023-01-13T01:46:33.652Z,100118.31
2023-01-13T01:49:08.477Z,100119.31
2023-01-13T01:51:49.979Z,100117.44
2023-01-13T01:54:24.360Z,100117.31
2023-01-13T01:56:51.700Z,100118.31
2023-01-13T01:59:18.664Z,100110.81
2023-01-13T02:01:45.543Z,100113.31
2023-01-13T02:04:21.821Z,100114.03
2023-01-13T02:06:50.146Z,100104.00
2023-01-13T02:09:17.452Z,100093.38
2023-01-13T02:12:02.686Z,100093.97
2023-01-13T02:14:30.640Z,100095.75
2023-01-13T02:17:26.141Z,100096.00
2023-01-13T02:19:58.584Z,100095.88
2023-01-13T02:22:35.732Z,100089.22
2023-01-13T02:25:08.013Z,100079.19
2023-01-13T02:27:49.025Z,100076.44
2023-01-13T02:30:55.752Z,100082.47
2023-01-13T02:33:47.250Z,100076.06
2023-01-13T02:36:33.321Z,100078.44
2023-01-13T02:39:41.680Z,100078.44
2023-01-13T02:42:36.667Z,100075.94
2023-01-13T02:45:21.363Z,100075.19
2023-01-13T02:47:50.277Z,100076.06
2023-01-13T02:50:22.210Z,100076.19
2023-01-13T02:53:03.912Z,100073.81
2023-01-13T02:55:36.006Z,100078.19
2023-01-13T02:58:06.243Z,100079.06
2023-01-13T03:00:33.666Z,100079.97
2023-01-13T03:03:01.584Z,100077.56
2023-01-13T03:05:30.159Z,100086.72
2023-01-13T03:08:02.632Z,100079.22
2023-01-13T03:10:36.224Z,100081.72
2023-01-13T03:13:27.405Z,100075.19
2023-01-13T03:15:56.675Z,100076.03
2023-01-13T03:18:44.980Z,100076.19
2023-01-13T03:21:19.758Z,100079.56
2023-01-13T03:24:03.634Z,100066.91
2023-01-13T03:26:45.209Z,100076.56
2023-01-13T03:29:26.101Z,100072.31
2023-01-13T03:31:59.278Z,100071.44
2023-01-13T03:34:34.324Z,100073.94
2023-01-13T03:37:05.491Z,100069.78
2023-01-13T03:39:36.267Z,100072.41
2023-01-13T03:42:08.819Z,100073.94
2023-01-13T03:44:57.489Z,100077.69
2023-01-13T03:47:52.510Z,100076.81
2023-01-13T03:50:27.982Z,100077.69
2023-01-13T03:53:19.637Z,100068.53
2023-01-13T03:55:50.816Z,100072.66
2023-01-13T03:58:25.071Z,100071.13
2023-01-13T04:00:59.929Z,100068.63
2023-01-13T04:03:41.460Z,100074.66
2023-01-13T04:06:17.410Z,100061.25
2023-01-13T04:08:53.098Z,100060.50
2023-01-13T04:11:29.659Z,100065.50
2023-01-13T04:13:58.638Z,100063.13
2023-01-13T04:16:25.709Z,100068.16
2023-01-13T04:18:52.273Z,100061.63
2023-01-13T04:22:15.920Z,100067.50
2023-01-13T04:24:42.553Z,100062.22
2023-01-13T04:27:09.070Z,100060.63
2023-01-13T04:29:35.627Z,100060.50
2023-01-13T04:32:02.236Z,100070.00
2023-01-13T04:34:28.766Z,100070.16
2023-01-13T04:36:55.292Z,100071.75
2023-01-13T04:39:21.860Z,100074.25
2023-01-13T04:42:01.317Z,100077.91
2023-01-13T04:44:28.658Z,100079.66
2023-01-13T04:46:55.220Z,100082.19
2023-01-13T04:49:21.776Z,100084.53
2023-01-13T04:51:48.379Z,100064.00
2023-01-13T04:54:16.245Z,100064.88
2023-01-13T04:56:42.826Z,100074.50
2023-01-13T04:59:10.935Z,100066.63
2023-01-13T05:01:38.026Z,100083.41
2023-01-13T05:04:05.577Z,100074.50
2023-01-13T05:06:32.261Z,100079.53
2023-01-13T05:08:59.079Z,100076.91
2023-01-13T05:11:44.291Z,100080.28
2023-01-13T05:14:29.693Z,100083.94
2023-01-13T05:17:03.593Z,100086.31
2023-01-13T05:19:40.723Z,100073.38
2023-01-13T05:22:26.119Z,100079.88
2023-01-13T05:25:10.756Z,100071.28
2023-01-13T05:27:37.425Z,100071.13
2023-01-13T05:30:04.988Z,100080.66
2023-01-13T05:32:31.635Z,100085.91
2023-01-13T05:34:58.223Z,100070.88
2023-01-13T05:37:25.895Z,100078.41
2023-01-13T05:40:11.322Z,100074.16
2023-01-13T05:42:57.395Z,100076.66
2023-01-13T05:45:24.692Z,100073.03
2023-01-13T05:47:51.479Z,100084.28
2023-01-13T05:50:18.049Z,100082.66
2023-01-13T05:52:44.707Z,100075.88
2023-01-13T05:55:12.456Z,100068.88
2023-01-13T05:57:38.981Z,100085.31
2023-01-13T06:00:06.059Z,100087.03
2023-01-13T06:02:32.848Z,100081.16
2023-01-13T06:04:59.389Z,100088.94
2023-01-13T06:07:25.957Z,100085.50
2023-01-13T06:09:52.517Z,100085.75
2023-01-13T06:12:19.077Z,100096.66
2023-01-13T06:14:45.635Z,100103.47
2023-01-13T06:17:14.946Z,100105.31
2023-01-13T06:19:41.940Z,100104.69
2023-01-13T06:22:35.694Z,100102.19
2023-01-13T06:25:03.299Z,100103.16
2023-01-13T06:27:30.646Z,100102.44
2023-01-13T06:29:57.362Z,100103.31
2023-01-13T06:32:31.485Z,100105.94
2023-01-13T06:35:06.337Z,100110.19
2023-01-13T06:37:34.634Z,100106.59
2023-01-13T06:40:03.970Z,100111.72
2023-01-13T06:42:54.312Z,100106.06
2023-01-13T06:45:22.592Z,100107.06
2023-01-13T06:47:49.670Z,100106.06
2023-01-13T06:50:18.719Z,100102.66
2023-01-13T06:52:45.279Z,100111.69
2023-01-13T06:55:12.252Z,100097.38
2023-01-13T06:57:55.771Z,100103.41
2023-01-13T07:00:24.155Z,100110.16
2023-01-13T07:02:51.019Z,100113.69
2023-01-13T07:05:19.117Z,100114.56
2023-01-13T07:07:45.820Z,100125.72
2023-01-13T07:10:22.257Z,100121.56
2023-01-13T07:13:08.260Z,100129.22
2023-01-13T07:15:35.497Z,100119.31
2023-01-13T07:18:02.570Z,100118.66
2023-01-13T07:20:30.393Z,100123.06
2023-01-13T07:22:57.607Z,100126.44
2023-01-13T07:25:24.155Z,100122.03
2023-01-13T07:27:50.694Z,100121.53
2023-01-13T07:30:17.686Z,100118.13
2023-01-13T07:32:44.221Z,100119.63
2023-01-13T07:35:10.793Z,100116.13
2023-01-13T07:37:39.422Z,100116.13
2023-01-13T07:40:06.805Z,100107.47
2023-01-13T07:42:52.041Z,100107.72
2023-01-13T07:45:18.583Z,100107.94
2023-01-13T07:47:45.192Z,100106.94
2023-01-13T07:50:11.789Z,100107.06
2023-01-13T07:52:38.337Z,100101.31
2023-01-13T07:55:05.229Z,100107.44
2023-01-13T07:57:31.769Z,100108.00
2023-01-13T07:59:58.335Z,100108.16
2023-01-13T08:02:25.214Z,100104.47
2023-01-13T08:04:51.889Z,100095.41
2023-01-13T08:07:18.502Z,100100.03
2023-01-13T08:09:45.118Z,100095.13
2023-01-13T08:12:30.070Z,100090.44
2023-01-13T08:14:56.658Z,100100.97
2023-01-13T08:17:23.242Z,100101.84
2023-01-13T08:19:50.049Z,100091.28
2023-01-13T08:22:16.649Z,100088.34
2023-01-13T08:24:43.234Z,100091.72
2023-01-13T08:27:09.821Z,100085.28
2023-01-13T08:29:36.425Z,100086.63
2023-01-13T08:32:03.086Z,100085.22
2023-01-13T08:34:29.736Z,100097.16
2023-01-13T08:36:56.382Z,100086.09
2023-01-13T08:39:24.557Z,100082.28
2023-01-13T08:41:58.456Z,100081.56
2023-01-13T08:44:29.909Z,100081.00
2023-01-13T12:38:53.690Z,99999.94
2023-01-13T12:41:37.431Z,100000.50
2023-01-13T12:44:20.348Z,99990.09
2023-01-13T12:46:56.089Z,99992.31
2023-01-13T12:49:33.861Z,99997.78
2023-01-13T12:52:09.836Z,100007.28
2023-01-13T12:54:39.297Z,100005.88
2023-01-13T12:57:29.373Z,99999.94
2023-01-13T13:00:05.011Z,100007.47
2023-01-13T13:02:37.656Z,100004.09
2023-01-13T13:05:24.137Z,100008.25
2023-01-13T13:08:06.034Z,100008.25
2023-01-13T13:10:37.545Z,100004.00
2023-01-13T13:13:20.307Z,100007.38
2023-01-13T13:15:51.687Z,99997.53
2023-01-13T13:18:18.294Z,100002.44
2023-01-13T13:21:05.527Z,100004.97
2023-01-13T13:23:45.834Z,99999.84
2023-01-13T13:26:20.645Z,100010.69
2023-01-13T13:29:08.644Z,100004.78
2023-01-13T13:32:14.880Z,99998.84
2023-01-13T13:34:55.485Z,99998.84
2023-01-13T13:38:09.700Z,99998.97
2023-01-13T13:41:01.135Z,99997.97
2023-01-13T13:43:49.782Z,99992.94
2023-01-13T13:46:49.068Z,99995.59
2023-01-13T13:49:18.742Z,100007.84
2023-01-13T13:52:00.768Z,99999.94
2023-01-13T13:54:27.911Z,100003.88
2023-01-13T13:56:54.535Z,100012.19
2023-01-13T13:59:26.770Z,100003.69
2023-01-13T14:02:01.629Z,100004.31
2023-01-13T14:04:34.415Z,99995.03
2023-01-13T14:07:18.050Z,99992.53
2023-01-13T14:09:47.556Z,99986.41
2023-01-13T14:12:22.632Z,99989.00
2023-01-13T14:14:50.723Z,99983.09
2023-01-13T14:17:18.933Z,99986.41
2023-01-13T14:19:52.853Z,99982.88
2023-01-13T14:22:19.663Z,99985.53
2023-01-13T14:24:51.124Z,99974.69
2023-01-13T14:27:19.275Z,99978.84
2023-01-13T14:29:45.888Z,99972.81
2023-01-13T14:32:19.951Z,99977.66
2023-01-13T14:34:46.889Z,99981.13
2023-01-13T14:37:38.449Z,99968.34
2023-01-13T14:40:06.017Z,99970.22
2023-01-13T14:42:35.472Z,99970.13
2023-01-13T14:45:03.147Z,99976.00
2023-01-13T14:47:33.969Z,99978.63
2023-01-13T14:50:03.871Z,99979.50
2023-01-13T14:52:36.098Z,99984.66
2023-01-13T14:55:19.358Z,99985.41
2023-01-13T14:57:47.073Z,99983.56
2023-01-13T15:00:13.546Z,99978.84
2023-01-13T15:02:58.532Z,99980.81
2023-01-13T15:05:29.824Z,99973.91
2023-01-13T15:08:03.382Z,99966.38
2023-01-13T15:10:33.729Z,99976.75
2023-01-13T15:13:03.972Z,99981.78
2023-01-13T15:15:36.361Z,99982.56
2023-01-13T15:18:12.564Z,99986.81
2023-01-13T15:20:39.743Z,99986.94
2023-01-13T15:23:06.440Z,99977.75
2023-01-13T15:25:35.775Z,99976.22
2023-01-13T15:28:04.783Z,99971.94
2023-01-13T15:30:31.994Z,99977.22
2023-01-13T15:32:59.048Z,99977.97
2023-01-13T15:35:28.346Z,99972.16
2023-01-13T15:37:56.350Z,99974.69
2023-01-13T15:40:30.007Z,99960.59
2023-01-13T15:43:15.407Z,99975.56
2023-01-13T15:46:01.378Z,99955.22
2023-01-13T15:48:33.572Z,99971.31
2023-01-13T15:51:02.523Z,99977.44
2023-01-13T15:53:30.056Z,99982.47
2023-01-13T15:55:58.919Z,99969.09
2023-01-13T15:58:28.406Z,99969.88
2023-01-13T16:00:55.470Z,99962.34
2023-01-13T19:59:06.058Z,99959.03
2023-01-13T20:01:36.106Z,99960.34
2023-01-13T20:04:04.745Z,99960.78
2023-01-13T20:06:34.324Z,99958.59
2023-01-13T20:09:00.933Z,99962.22
2023-01-13T20:11:33.326Z,99968.47
2023-01-13T20:14:01.550Z,99959.38
2023-01-13T20:16:29.421Z,99955.34
2023-01-13T20:18:56.793Z,99958.81
2023-01-13T20:21:23.431Z,99958.09
2023-01-13T20:23:52.119Z,99956.44
2023-01-13T20:26:19.577Z,99952.94
2023-01-13T20:28:47.344Z,99955.56
2023-01-13T20:31:15.583Z,99956.44
2023-01-13T20:33:42.936Z,99956.44
2023-01-13T20:36:31.425Z,99960.59
2023-01-13T20:38:59.672Z,99970.53
2023-01-13T20:41:44.796Z,99971.31
2023-01-13T20:44:12.548Z,99968.00
2023-01-13T20:46:41.466Z,99967.16
2023-01-13T20:49:10.560Z,99967.16
2023-01-13T20:51:37.776Z,99970.66
2023-01-13T20:54:04.542Z,99972.41
2023-01-13T20:56:31.433Z,99966.28
2023-01-13T20:58:58.043Z,99974.91
2023-01-13T21:01:25.024Z,99977.22
2023-01-13T21:03:54.668Z,99978.84
2023-01-13T21:06:21.255Z,99985.53
2023-01-13T21:08:47.797Z,99987.25
2023-01-13T21:11:16.331Z,99989.69
2023-01-13T21:14:01.549Z,99995.59
2023-01-13T21:16:28.129Z,99996.53
2023-01-13T21:19:24.065Z,99993.16
2023-01-13T21:21:50.596Z,99994.81
2023-01-13T21:24:17.167Z,99986.25
2023-01-13T21:26:43.755Z,99989.69
2023-01-13T21:29:10.334Z,99981.47
2023-01-13T21:31:37.383Z,99985.53
2023-01-13T21:34:05.130Z,99980.50
2023-01-13T21:36:31.682Z,99980.72
2023-01-13T21:38:59.309Z,99979.81
2023-01-13T21:41:45.199Z,99981.38
2023-01-13T21:44:37.619Z,99970.44
2023-01-13T21:47:23.601Z,99964.72
2023-01-13T21:49:50.144Z,99968.88
2023-01-13T21:52:16.715Z,99963.84
2023-01-13T21:55:01.735Z,99967.38
2023-01-13T21:57:28.393Z,99970.75
2023-01-13T21:59:54.973Z,99967.38
2023-01-13T22:02:29.121Z,99966.69
2023-01-13T22:04:55.750Z,99957.31
2023-01-13T22:07:22.287Z,99962.44
2023-01-13T22:09:48.853Z,99964.09
2023-01-13T22:12:17.797Z,99966.59
2023-01-13T22:14:44.315Z,99960.06
2023-01-13T22:17:14.412Z,99965.09
2023-01-13T22:19:42.317Z,99959.06
2023-01-13T22:22:14.153Z,99953.06
2023-01-13T22:24:43.443Z,99954.91
2023-01-13T22:27:11.029Z,99962.34
2023-01-13T22:29:37.815Z,99962.56
2023-01-13T22:32:05.339Z,99959.81
2023-01-13T22:34:32.431Z,99957.31
2023-01-13T22:36:59.786Z,99956.44
2023-01-13T22:39:26.566Z,99958.97
2023-01-13T22:41:53.442Z,99959.06
2023-01-13T22:44:21.132Z,99961.25
2023-01-13T22:46:47.854Z,99957.72
2023-01-13T22:49:15.970Z,99959.38
2023-01-13T22:51:42.862Z,99965.41
2023-01-13T22:54:10.316Z,99956.88
2023-01-13T22:56:36.900Z,99963.63
2023-01-13T22:59:05.093Z,99958.59
2023-01-13T23:01:34.638Z,99951.84
2023-01-13T23:04:02.127Z,99951.84
2023-01-13T23:06:31.300Z,99956.88
2023-01-13T23:08:59.013Z,99960.25
2023-01-13T23:11:28.866Z,99958.59
2023-01-13T23:14:04.533Z,99964.19
2023-01-13T23:16:34.991Z,99958.41
2023-01-13T23:19:01.713Z,99957.53
2023-01-13T23:21:30.852Z,99960.16
2023-01-13T23:23:58.852Z,99955.34
2023-01-13T23:26:26.889Z,99957.00
2023-01-13T23:28:53.528Z,99957.72
2023-01-13T23:31:22.124Z,99952.84
2023-01-13T23:33:49.061Z,99956.22
2023-01-13T23:36:21.627Z,99948.78
2023-01-13T23:38:48.189Z,99944.41
2023-01-13T23:41:16.986Z,99949.31
2023-01-13T23:43:43.721Z,99960.38
2023-01-13T23:46:12.699Z,99956.00
2023-01-13T23:48:39.816Z,99944.19
2023-01-13T23:51:08.884Z,99946.81
2023-01-13T23:53:40.240Z,99940.03
2023-01-13T23:56:11.055Z,99950.19
2023-01-13T23:58:37.702Z,99941.91
